Time;durP1;ratioP1;P1;durP2;ratioP2;P2;SDS_P1;SDS_P2;PMS_P1;PMS_P2;Temp;Humidity;BMP_temperature;BMP_pressure;BME280_temperature;BME280_humidity;BME280_pressure;Samples;Min_cycle;Max_cycle;Signal;HPM_P1;HPM_P2
2022/06/10 00:02:45;;;;;;;14.80;12.90;;;;;;;15.47;100.00;98525.42;219139;1282;23222;-74
2022/06/10 00:08:11;;;;;;;17.10;13.30;;;;;;;15.45;100.00;98527.91;219343;1282;24312;-74
2022/06/10 00:13:24;;;;;;;14.40;12.90;;;;;;;15.44;100.00;98529.80;218745;1282;443933;-74
2022/06/10 00:18:42;;;;;;;18.50;14.60;;;;;;;15.42;100.00;98535.66;219409;1282;22586;-72
2022/06/10 00:23:45;;;;;;;18.50;14.60;;;;;;;15.39;100.00;98542.27;219178;1282;25431;-74
2022/06/10 00:28:53;;;;;;;18.00;14.50;;;;;;;15.40;100.00;98544.73;218766;1284;23422;-73
2022/06/10 00:34:01;;;;;;;16.30;13.50;;;;;;;15.39;100.00;98543.40;219176;1281;25263;-73
2022/06/10 00:39:03;;;;;;;16.60;14.20;;;;;;;15.37;100.00;98544.40;218955;1284;22699;-74
2022/06/10 00:44:25;;;;;;;16.20;13.90;;;;;;;15.37;100.00;98552.88;218897;1282;25266;-74
2022/06/10 00:49:31;;;;;;;16.90;14.60;;;;;;;15.39;100.00;98553.96;218864;1283;22590;-73
2022/06/10 00:54:44;;;;;;;17.50;14.60;;;;;;;15.41;100.00;98553.12;219125;1282;22637;-74
2022/06/10 01:00:04;;;;;;;18.50;15.70;;;;;;;15.44;100.00;98554.77;219582;1282;22578;-73
2022/06/10 01:05:14;;;;;;;16.60;14.60;;;;;;;15.44;100.00;98559.79;218870;1282;23833;-74
2022/06/10 01:10:18;;;;;;;20.90;17.00;;;;;;;15.43;100.00;98568.99;219326;1282;25352;-74
2022/06/10 01:15:39;;;;;;;18.80;16.20;;;;;;;15.43;100.00;98578.90;219175;1284;24232;-74
2022/06/10 01:21:14;;;;;;;19.10;16.80;;;;;;;15.42;100.00;98574.73;219216;1282;23130;-73
2022/06/10 01:27:47;;;;;;;19.40;16.40;;;;;;;15.39;100.00;98574.25;218910;1282;22552;-74
2022/06/10 01:32:05;;;;;;;19.10;15.10;;;;;;;15.41;100.00;98573.76;218798;1284;26456;-74
2022/06/10 01:37:15;;;;;;;19.40;15.60;;;;;;;15.42;100.00;98574.52;218819;1284;22642;-74
2022/06/10 01:42:38;;;;;;;17.70;15.10;;;;;;;15.43;100.00;98579.13;218913;1282;22638;-74
2022/06/10 01:48:07;;;;;;;18.60;15.90;;;;;;;15.45;100.00;98590.91;219248;1282;22594;-74
2022/06/10 01:53:22;;;;;;;18.90;15.60;;;;;;;15.48;100.00;98596.18;218879;1284;25391;-73
2022/06/10 01:58:34;;;;;;;19.40;16.80;;;;;;;15.50;100.00;98608.98;219477;1282;23153;-73
2022/06/10 02:03:44;;;;;;;17.10;15.20;;;;;;;15.51;100.00;98617.15;218973;1282;25262;-74
2022/06/10 02:09:01;;;;;;;18.80;16.10;;;;;;;15.51;100.00;98619.32;219092;1284;22587;-74
2022/06/10 02:14:13;;;;;;;17.90;16.00;;;;;;;15.51;100.00;98626.47;219059;1282;25362;-74
2022/06/10 02:19:24;;;;;;;18.30;15.00;;;;;;;15.51;100.00;98631.19;218926;1281;26455;-73
2022/06/10 02:24:55;;;;;;;19.80;16.60;;;;;;;15.52;100.00;98631.98;218864;1282;24471;-74
2022/06/10 02:30:10;;;;;;;17.10;14.20;;;;;;;15.53;100.00;98634.27;218877;1284;22544;-75
2022/06/10 02:35:15;;;;;;;19.40;15.30;;;;;;;15.55;100.00;98638.22;218494;1284;22562;-74
2022/06/10 02:40:33;;;;;;;19.10;16.50;;;;;;;15.59;100.00;98642.59;218895;1284;22594;-74
2022/06/10 02:46:24;;;;;;;19.10;15.20;;;;;;;15.61;100.00;98646.59;218996;1282;24304;-75
2022/06/10 02:51:29;;;;;;;19.60;16.10;;;;;;;15.61;100.00;98656.09;218880;1282;23052;-74
2022/06/10 02:56:31;;;;;;;18.10;16.20;;;;;;;15.61;100.00;98659.89;219299;1282;26501;-74
2022/06/10 03:02:07;;;;;;;16.30;14.50;;;;;;;15.61;100.00;98662.17;219107;1282;25478;-74
2022/06/10 03:07:35;;;;;;;14.80;12.70;;;;;;;15.63;100.00;98667.20;218893;1282;22649;-74
2022/06/10 03:12:50;;;;;;;14.20;12.70;;;;;;;15.65;100.00;98674.67;218825;1284;22567;-75
2022/06/10 03:18:28;;;;;;;13.10;11.70;;;;;;;15.64;100.00;98673.13;218607;1284;22625;-75
2022/06/10 03:23:36;;;;;;;14.60;11.30;;;;;;;15.65;100.00;98677.23;218947;1282;22589;-74
2022/06/10 03:28:48;;;;;;;13.40;10.70;;;;;;;15.61;100.00;98677.39;218665;1284;22583;-74
2022/06/10 03:33:57;;;;;;;11.40;10.40;;;;;;;15.60;100.00;98677.02;218999;1284;24316;-75
2022/06/10 03:39:06;;;;;;;12.00;10.80;;;;;;;15.57;100.00;98686.13;219205;1284;22665;-75
2022/06/10 03:44:17;;;;;;;14.10;11.00;;;;;;;15.55;100.00;98696.61;218826;1284;25425;-75
2022/06/10 03:49:24;;;;;;;11.90;10.70;;;;;;;15.53;100.00;98705.61;218942;1284;22578;-73
2022/06/10 03:54:26;;;;;;;12.00;10.80;;;;;;;15.52;100.00;98714.27;218093;1284;22599;-73
2022/06/10 03:59:31;;;;;;;12.80;11.60;;;;;;;15.53;100.00;98725.96;219205;1282;22593;-75
2022/06/10 04:04:46;;;;;;;13.00;11.60;;;;;;;15.56;100.00;98728.04;218953;1282;22716;-75
2022/06/10 04:10:13;;;;;;;15.50;12.20;;;;;;;15.58;100.00;98735.98;219382;1282;24345;-74
2022/06/10 04:15:17;;;;;;;15.40;13.60;;;;;;;15.59;100.00;98735.48;219206;1285;24039;-75
2022/06/10 04:20:27;;;;;;;16.70;13.60;;;;;;;15.59;100.00;98738.77;219034;1282;26402;-74
2022/06/10 04:25:34;;;;;;;20.30;14.00;;;;;;;15.56;100.00;98745.60;218928;1282;22576;-74
2022/06/10 04:30:51;;;;;;;15.50;13.90;;;;;;;15.51;100.00;98747.88;219003;1282;24394;-75
2022/06/10 04:35:54;;;;;;;19.40;14.40;;;;;;;15.48;100.00;98751.29;219106;1282;22535;-75
2022/06/10 04:41:07;;;;;;;17.50;14.50;;;;;;;15.46;100.00;98753.90;218893;1282;25091;-76
2022/06/10 04:46:24;;;;;;;;;;;;;;;15.45;100.00;98760.56;219247;1282;24245;-75
2022/06/10 04:51:27;;;;;;;15.90;14.00;;;;;;;15.45;100.00;98765.96;219073;1282;25432;-74
2022/06/10 04:56:30;;;;;;;21.30;15.80;;;;;;;15.44;100.00;98776.35;218998;1282;25431;-74
2022/06/10 05:01:33;;;;;;;16.50;14.80;;;;;;;15.46;100.00;98781.42;219224;1282;24318;-75
2022/06/10 05:06:35;;;;;;;17.10;15.20;;;;;;;15.46;100.00;98787.52;218999;1282;26107;-76
2022/06/10 05:11:44;;;;;;;17.30;14.60;;;;;;;15.47;100.00;98789.42;219174;1282;22608;-75
2022/06/10 05:17:00;;;;;;;;;;;;;;;15.48;100.00;98799.13;219098;1282;23066;-74
2022/06/10 05:22:03;;;;;;;18.20;14.30;;;;;;;15.51;100.00;98803.20;218874;1284;22678;-74
2022/06/10 05:27:31;;;;;;;16.50;14.50;;;;;;;15.55;100.00;98812.31;218846;1284;24340;-74
2022/06/10 05:32:32;;;;;;;18.80;15.00;;;;;;;15.58;100.00;98826.09;218792;1284;22566;-75
2022/06/10 05:37:38;;;;;;;20.30;16.70;;;;;;;15.62;100.00;98831.02;218959;1283;22557;-73
2022/06/10 05:42:57;;;;;;;18.40;15.30;;;;;;;15.67;100.00;98842.41;219412;1284;22560;-74
2022/06/10 05:48:11;;;;;;;20.50;15.30;;;;;;;15.71;100.00;98854.13;219316;1283;22726;-74
2022/06/10 05:53:33;;;;;;;17.40;14.30;;;;;;;15.75;100.00;98863.62;219507;1282;25323;-75
2022/06/10 05:58:36;;;;;;;18.90;15.00;;;;;;;15.78;100.00;98866.20;219353;1282;22626;-74
2022/06/10 06:03:38;;;;;;;20.20;15.90;;;;;;;15.79;100.00;98869.47;219303;1284;23330;-74
2022/06/10 06:08:50;;;;;;;21.40;16.00;;;;;;;15.79;100.00;98876.91;219629;1284;24170;-73
2022/06/10 06:14:13;;;;;;;20.20;15.90;;;;;;;15.79;100.00;98881.24;219681;1282;22574;-73
2022/06/10 06:19:16;;;;;;;18.60;15.20;;;;;;;15.82;100.00;98889.34;219352;1284;22786;-73
2022/06/10 06:24:18;;;;;;;20.60;16.10;;;;;;;15.84;100.00;98887.40;219251;1285;22621;-74
2022/06/10 06:29:24;;;;;;;20.20;15.90;;;;;;;15.86;100.00;98889.96;218939;1282;22675;-73
2022/06/10 06:34:26;;;;;;;21.90;16.40;;;;;;;15.85;100.00;98902.27;219236;1284;23367;-74
2022/06/10 06:39:34;;;;;;;21.80;16.30;;;;;;;15.88;100.00;98902.39;219374;1285;22579;-73
2022/06/10 06:44:36;;;;;;;22.20;17.40;;;;;;;15.93;100.00;98912.88;219452;1282;22575;-73
2022/06/10 06:49:39;;;;;;;21.20;17.20;;;;;;;15.97;100.00;98921.45;219760;1282;22686;-73
2022/06/10 06:54:45;;;;;;;21.20;17.30;;;;;;;16.04;100.00;98928.25;219343;1282;22699;-75
2022/06/10 06:59:48;;;;;;;20.40;16.20;;;;;;;16.10;100.00;98938.98;224865;1283;22164;-73
2022/06/10 07:05:03;;;;;;;19.70;16.30;;;;;;;16.15;100.00;98944.21;224837;1284;22474;-73
2022/06/10 07:10:05;;;;;;;18.80;16.00;;;;;;;16.19;100.00;98950.40;224864;1283;23178;-72
2022/06/10 07:15:09;;;;;;;19.00;15.70;;;;;;;16.25;100.00;98958.09;224833;1283;22376;-73
2022/06/10 07:20:30;;;;;;;19.30;16.80;;;;;;;16.30;100.00;98967.16;224991;1283;22159;-73
2022/06/10 07:25:33;;;;;;;17.80;15.90;;;;;;;16.35;100.00;98967.73;224905;1284;22527;-74
2022/06/10 07:30:42;;;;;;;18.10;15.50;;;;;;;16.44;100.00;98970.59;224853;1283;22196;-74
2022/06/10 07:35:45;;;;;;;19.90;16.80;;;;;;;16.48;100.00;98972.38;224650;1284;22432;-74
2022/06/10 07:46:17;;;;;;;19.20;16.40;;;;;;;16.51;100.00;98975.04;224713;1284;22411;-73
2022/06/10 07:51:24;;;;;;;19.10;15.80;;;;;;;16.57;100.00;98976.92;224744;1282;22828;-74
2022/06/10 07:56:40;;;;;;;18.70;15.70;;;;;;;16.59;100.00;98980.13;224788;1283;22207;-73
2022/06/10 08:01:43;;;;;;;18.30;15.60;;;;;;;16.66;100.00;98987.39;224724;1283;23566;-73
2022/06/10 08:06:50;;;;;;;17.80;15.20;;;;;;;16.67;100.00;98987.98;224409;1284;22181;-74
2022/06/10 08:11:56;;;;;;;17.10;15.30;;;;;;;16.63;100.00;98993.48;224782;1284;22276;-74
2022/06/10 08:17:06;;;;;;;18.20;16.30;;;;;;;16.58;100.00;98999.15;224859;1282;22443;-74
2022/06/10 08:27:34;;;;;;;18.90;14.70;;;;;;;16.50;100.00;99004.05;224295;1284;22174;-74
2022/06/10 08:32:36;;;;;;;17.80;15.80;;;;;;;16.53;100.00;99009.23;224530;1284;22444;-75
2022/06/10 08:37:39;;;;;;;14.60;13.10;;;;;;;16.59;100.00;99012.39;224727;1283;22420;-73
2022/06/10 08:42:45;;;;;;;16.50;15.00;;;;;;;16.67;100.00;99016.20;224710;1284;22470;-71
2022/06/10 08:48:07;;;;;;;14.70;13.30;;;;;;;16.80;100.00;99017.52;224568;1283;22480;-71
2022/06/10 08:53:09;;;;;;;15.60;13.90;;;;;;;16.85;100.00;99016.58;224470;1284;22198;-71
2022/06/10 08:58:21;;;;;;;15.30;13.80;;;;;;;16.85;100.00;99013.61;224445;1284;22558;-71
2022/06/10 09:03:40;;;;;;;15.80;14.20;;;;;;;16.93;100.00;99015.91;224370;1284;23203;-72
2022/06/10 09:08:47;;;;;;;16.00;13.40;;;;;;;17.03;99.89;99018.64;224578;1284;22182;-73
2022/06/10 09:14:09;;;;;;;14.20;12.40;;;;;;;17.25;99.95;99026.30;224627;1284;23552;-73
2022/06/10 09:19:42;;;;;;;14.70;13.20;;;;;;;17.48;99.94;99027.73;221854;1284;23999;-77
2022/06/10 09:24:54;;;;;;;14.30;12.90;;;;;;;17.66;99.86;99032.74;224694;1283;22489;-73
2022/06/10 09:30:03;;;;;;;13.60;12.30;;;;;;;17.74;98.88;99037.60;225008;1284;22514;-73
2022/06/10 09:35:25;;;;;;;12.90;11.50;;;;;;;17.76;98.51;99037.30;224918;1284;22442;-72
2022/06/10 09:40:45;;;;;;;12.40;11.20;;;;;;;17.83;98.02;99038.85;220706;1284;26529;-73
2022/06/10 09:46:07;;;;;;;13.20;11.90;;;;;;;17.91;97.67;99038.92;219055;1284;25292;-73
2022/06/10 09:51:39;;;;;;;13.40;12.00;;;;;;;18.01;97.38;99044.80;219639;1284;22713;-74
2022/06/10 09:57:00;;;;;;;12.30;11.10;;;;;;;18.05;96.34;99052.48;219799;1283;24269;-74
2022/06/10 10:02:27;;;;;;;12.30;11.30;;;;;;;18.15;96.70;99056.48;219239;1284;25166;-74
2022/06/10 10:07:48;;;;;;;10.70;9.70;;;;;;;18.36;97.23;99052.11;219216;1284;23479;-72
2022/06/10 10:13:06;;;;;;;11.60;10.50;;;;;;;18.70;97.18;99048.95;219334;1284;25421;-73
2022/06/10 10:18:27;;;;;;;10.50;9.50;;;;;;;19.03;96.33;99053.93;219676;1284;22841;-75
2022/06/10 10:23:41;;;;;;;10.40;9.40;;;;;;;19.25;95.27;99059.52;219540;1284;22573;-74
2022/06/10 10:28:45;;;;;;;8.30;7.30;;;;;;;19.44;94.17;99059.73;219430;1285;22650;-74
2022/06/10 10:33:48;;;;;;;8.50;7.70;;;;;;;19.67;93.52;99065.72;219748;1284;22641;-74
2022/06/10 10:38:52;;;;;;;8.00;7.30;;;;;;;19.87;90.89;99074.32;219625;1282;23689;-74
2022/06/10 10:43:59;;;;;;;7.70;7.00;;;;;;;20.05;89.27;99074.08;219344;1283;25422;-75
2022/06/10 10:49:16;;;;;;;8.20;7.60;;;;;;;20.20;87.98;99076.45;219555;1284;22596;-75
2022/06/10 10:54:30;;;;;;;8.60;7.30;;;;;;;20.29;86.72;99078.80;219431;1284;22567;-74
2022/06/10 10:59:40;;;;;;;8.20;7.50;;;;;;;20.35;85.61;99083.70;219847;1284;22589;-75
2022/06/10 11:04:42;;;;;;;7.40;6.80;;;;;;;20.43;84.33;99086.25;219529;1284;22575;-75
2022/06/10 11:10:04;;;;;;;6.60;6.10;;;;;;;20.56;85.02;99090.80;218984;1284;22573;-75
2022/06/10 11:15:21;;;;;;;6.60;6.10;;;;;;;20.73;84.25;99094.08;219640;1284;22597;-75
2022/06/10 11:20:32;;;;;;;7.80;7.20;;;;;;;20.93;83.56;99089.92;219349;1282;22562;-75
2022/06/10 11:25:46;;;;;;;5.90;5.40;;;;;;;20.97;82.41;99089.02;219129;1284;24250;-76
2022/06/10 11:31:00;;;;;;;5.20;4.80;;;;;;;21.12;82.70;99086.66;219301;1284;22599;-75
2022/06/10 11:36:11;;;;;;;5.20;4.80;;;;;;;21.42;81.50;99084.98;219469;1284;22576;-74
2022/06/10 11:41:34;;;;;;;4.90;4.50;;;;;;;21.67;80.45;99084.95;219703;1284;24279;-75
2022/06/10 11:46:47;;;;;;;4.50;4.00;;;;;;;21.85;79.89;99078.49;219252;1284;22551;-74
2022/06/10 11:51:59;;;;;;;4.50;4.20;;;;;;;22.06;78.84;99081.41;219488;1282;24414;-74
2022/06/10 12:02:52;;;;;;;4.70;4.30;;;;;;;22.63;76.94;99076.24;219118;1284;24241;-75
2022/06/10 12:08:19;;;;;;;4.50;4.20;;;;;;;23.03;75.16;99077.89;218931;1282;22553;-74
2022/06/10 12:13:24;;;;;;;5.00;4.50;;;;;;;23.26;73.58;99073.52;218957;1284;658030;-75
2022/06/10 12:18:35;;;;;;;4.90;4.50;;;;;;;23.18;71.72;99074.64;219753;1284;24122;-74
2022/06/10 12:23:38;;;;;;;4.40;4.00;;;;;;;23.15;72.43;99070.84;219778;1284;22954;-76
2022/06/10 12:28:57;;;;;;;4.30;3.50;;;;;;;23.11;71.93;99066.61;219344;1282;22544;-75
2022/06/10 12:33:59;;;;;;;3.40;3.10;;;;;;;23.02;71.08;99070.30;219133;1284;24449;-73
2022/06/10 12:39:03;;;;;;;3.30;3.00;;;;;;;22.93;70.92;99066.93;219649;1282;22768;-74
2022/06/10 12:44:13;;;;;;;4.00;3.00;;;;;;;22.86;69.50;99069.48;219357;1284;25234;-74
2022/06/10 12:49:46;;;;;;;3.70;3.00;;;;;;;22.53;69.17;99066.48;219063;1282;25577;-74
2022/06/10 12:54:55;;;;;;;3.60;2.60;;;;;;;22.41;70.50;99066.86;219888;1282;22555;-73
2022/06/10 13:00:19;;;;;;;3.20;3.00;;;;;;;22.61;71.02;99065.59;219852;1282;23308;-72
2022/06/10 13:05:43;;;;;;;2.40;2.20;;;;;;;22.71;70.36;99071.16;219381;1282;22711;-72
2022/06/10 13:10:45;;;;;;;3.40;3.10;;;;;;;22.52;69.24;99075.02;219876;1282;22571;-73
2022/06/10 13:15:55;;;;;;;3.60;2.70;;;;;;;22.34;69.58;99072.80;219164;1282;25219;-73
2022/06/10 13:21:11;;;;;;;2.50;2.20;;;;;;;22.12;69.07;99073.61;218796;1284;22582;-74
2022/06/10 13:26:21;;;;;;;2.90;2.70;;;;;;;21.84;69.38;99070.52;219304;1284;22723;-74
2022/06/10 13:31:24;;;;;;;2.70;2.50;;;;;;;21.63;68.78;99061.58;219208;1284;24758;-76
2022/06/10 13:36:37;;;;;;;2.50;2.20;;;;;;;21.46;69.54;99062.65;219261;1284;24316;-75
2022/06/10 13:42:04;;;;;;;4.30;3.90;;;;;;;21.32;69.56;99061.86;219106;1282;22803;-75
2022/06/10 13:47:26;;;;;;;3.70;3.40;;;;;;;21.54;70.62;99055.52;218968;1284;22582;-75
2022/06/10 13:52:34;;;;;;;2.80;2.30;;;;;;;22.19;70.19;99057.60;219740;1284;22690;-74
2022/06/10 13:57:39;;;;;;;2.70;2.50;;;;;;;22.53;68.58;99061.16;219525;1282;22576;-73
2022/06/10 14:02:43;;;;;;;4.00;2.50;;;;;;;23.03;68.80;99061.50;218954;1283;22622;-75
2022/06/10 14:07:48;;;;;;;2.80;2.60;;;;;;;23.37;66.39;99060.33;218804;1284;22607;-75
2022/06/10 14:13:07;;;;;;;2.80;2.50;;;;;;;23.26;65.44;99064.23;218969;1284;22662;-75
2022/06/10 14:18:18;;;;;;;2.30;2.00;;;;;;;23.12;66.07;99062.88;218702;1284;22572;-74
2022/06/10 14:23:35;;;;;;;2.40;2.00;;;;;;;23.17;66.00;99065.80;219003;1282;22594;-75
2022/06/10 14:28:44;;;;;;;4.10;2.70;;;;;;;23.22;65.79;99059.56;219694;1283;24410;-73
2022/06/10 14:33:56;;;;;;;2.50;2.10;;;;;;;23.19;65.49;99057.24;219386;1284;22558;-74
2022/06/10 14:39:21;;;;;;;2.80;2.60;;;;;;;22.94;65.08;99057.35;218950;1284;25427;-75
2022/06/10 14:44:44;;;;;;;9.50;8.50;;;;;;;22.57;65.79;99054.36;219417;1284;25996;-73
2022/06/10 14:49:54;;;;;;;2.90;2.70;;;;;;;22.32;66.30;99050.62;218866;1284;25907;-74
2022/06/10 14:54:57;;;;;;;2.20;2.10;;;;;;;22.21;66.92;99045.09;219024;1284;25377;-74
2022/06/10 15:00:11;;;;;;;2.60;2.30;;;;;;;22.11;65.41;99047.31;218679;1284;25340;-74
2022/06/10 15:10:43;;;;;;;2.30;2.00;;;;;;;22.10;64.43;99033.65;218521;1284;22547;-73
2022/06/10 15:15:47;;;;;;;2.60;2.20;;;;;;;22.37;64.31;99034.35;218763;1284;22569;-73
2022/06/10 15:20:50;;;;;;;2.50;2.30;;;;;;;22.66;62.86;99039.55;218746;1284;22597;-73
2022/06/10 15:25:54;;;;;;;2.20;2.00;;;;;;;22.92;62.68;99035.71;218670;1284;25345;-73
2022/06/10 15:30:58;;;;;;;2.30;1.80;;;;;;;23.12;61.15;99034.32;218887;1284;22691;-74
2022/06/10 15:41:54;;;;;;;2.00;1.90;;;;;;;23.24;60.33;99038.04;219374;1284;24251;-73
2022/06/10 15:47:00;;;;;;;2.00;1.90;;;;;;;23.28;59.80;99032.63;218952;1282;22627;-73
2022/06/10 15:52:21;;;;;;;1.90;1.80;;;;;;;23.24;58.77;99037.96;219559;1284;25531;-73
2022/06/10 15:57:35;;;;;;;1.70;1.60;;;;;;;23.17;58.04;99043.16;219369;1284;22580;-73
2022/06/10 16:02:45;;;;;;;1.80;1.70;;;;;;;23.08;57.11;99043.23;219661;1284;22569;-73
2022/06/10 16:07:48;;;;;;;1.70;1.60;;;;;;;23.01;56.49;99043.90;219281;1284;22606;-73
2022/06/10 16:12:59;;;;;;;1.60;1.50;;;;;;;23.00;56.92;99049.02;219275;1284;24698;-73
2022/06/10 16:18:20;;;;;;;2.90;2.50;;;;;;;22.99;56.09;99055.17;219246;1284;22733;-73
2022/06/10 16:23:31;;;;;;;2.00;1.90;;;;;;;22.94;55.74;99056.27;219316;1284;22608;-73
2022/06/10 16:28:42;;;;;;;2.40;1.90;;;;;;;22.92;55.73;99056.56;219091;1284;24336;-74
2022/06/10 16:33:49;;;;;;;2.10;1.90;;;;;;;22.91;55.80;99056.44;219328;1284;22555;-73
2022/06/10 16:38:51;;;;;;;4.00;2.10;;;;;;;22.89;55.81;99055.79;219234;1284;23105;-73
2022/06/10 16:43:57;;;;;;;3.10;1.80;;;;;;;22.88;55.18;99060.30;219221;1284;23022;-72
2022/06/10 16:49:05;;;;;;;2.00;1.90;;;;;;;22.85;55.60;99066.41;219297;1284;25421;-72
2022/06/10 16:54:07;;;;;;;2.10;1.90;;;;;;;22.86;56.40;99065.02;219287;1284;22583;-72
2022/06/10 16:59:14;;;;;;;2.10;2.00;;;;;;;22.95;56.64;99064.64;218866;1284;22753;-73
2022/06/10 17:04:17;;;;;;;2.40;2.00;;;;;;;23.02;56.81;99057.95;219557;1284;22574;-72
2022/06/10 17:09:22;;;;;;;2.10;2.00;;;;;;;23.62;58.05;99055.45;219172;1284;24337;-72
2022/06/10 17:14:29;;;;;;;2.70;2.50;;;;;;;25.19;57.93;99058.66;219424;1282;25327;-72
2022/06/10 17:19:32;;;;;;;2.60;2.40;;;;;;;26.61;55.89;99056.81;219127;1285;24285;-72
2022/06/10 17:24:34;;;;;;;2.90;2.10;;;;;;;27.66;54.46;99057.92;219449;1284;22554;-72
2022/06/10 17:29:40;;;;;;;2.60;2.40;;;;;;;28.56;52.78;99064.75;218872;1285;24310;-72
2022/06/10 17:34:46;;;;;;;5.10;2.40;;;;;;;28.99;50.72;99067.06;218677;1284;25380;-69
2022/06/10 17:39:51;;;;;;;2.40;2.30;;;;;;;28.12;49.03;99076.89;218324;1283;25400;-72
2022/06/10 17:44:54;;;;;;;2.40;2.20;;;;;;;26.80;49.11;99076.95;219038;1284;24296;-72
2022/06/10 17:49:56;;;;;;;3.00;2.70;;;;;;;25.55;50.16;99080.02;219172;1284;26291;-72
2022/06/10 17:55:07;;;;;;;2.90;2.70;;;;;;;24.52;51.28;99084.10;218881;1283;22642;-72
2022/06/10 18:00:25;;;;;;;4.60;3.10;;;;;;;23.68;52.46;99085.78;219569;1285;22731;-72
2022/06/10 18:05:31;;;;;;;2.90;2.70;;;;;;;22.98;53.68;99091.77;219271;1283;22641;-72
2022/06/10 18:10:44;;;;;;;2.80;2.60;;;;;;;22.42;54.40;99102.66;219525;1282;23907;-72
2022/06/10 18:15:57;;;;;;;3.10;2.80;;;;;;;21.95;55.44;99106.98;219380;1284;22589;-72
2022/06/10 18:21:58;;;;;;;3.10;2.70;;;;;;;21.58;56.51;99114.79;218900;1284;22594;-72
2022/06/10 18:27:51;;;;;;;3.30;2.50;;;;;;;21.21;57.12;99113.02;219375;1284;24252;-72
2022/06/10 18:32:57;;;;;;;3.40;3.10;;;;;;;20.86;58.01;99116.58;219187;1284;24320;-73
2022/06/10 18:38:03;;;;;;;3.90;2.50;;;;;;;20.59;58.61;99121.35;218878;1284;23428;-72
2022/06/10 18:43:50;;;;;;;4.30;2.70;;;;;;;20.33;59.43;99127.18;219372;1284;22560;-71
2022/06/10 18:48:52;;;;;;;3.40;2.60;;;;;;;20.05;60.36;99137.63;219459;1284;22498;-72
2022/06/10 18:54:40;;;;;;;2.70;2.50;;;;;;;19.75;61.20;99137.48;219095;1284;23293;-72
2022/06/10 18:59:41;;;;;;;3.00;2.50;;;;;;;19.42;62.17;99144.96;219273;1282;24413;-71
2022/06/10 19:04:46;;;;;;;3.90;3.30;;;;;;;19.16;62.93;99145.66;219541;1282;24729;-71
2022/06/10 19:10:11;;;;;;;3.80;2.90;;;;;;;18.92;63.88;99159.02;218938;1282;24310;-72
2022/06/10 19:15:57;;;;;;;3.50;2.30;;;;;;;18.65;64.41;99163.50;218941;1284;22592;-72
2022/06/10 19:21:45;;;;;;;3.00;2.70;;;;;;;18.43;65.06;99178.58;219279;1284;26405;-73
2022/06/10 19:27:38;;;;;;;5.00;2.80;;;;;;;18.17;65.74;99174.73;218645;1284;22582;-72
2022/06/10 19:32:45;;;;;;;3.10;2.80;;;;;;;17.93;66.28;99174.39;219354;1284;25525;-72
2022/06/10 19:37:49;;;;;;;3.40;3.10;;;;;;;17.75;66.54;99182.95;219473;1284;24297;-72
2022/06/10 19:42:54;;;;;;;3.20;2.90;;;;;;;17.59;67.38;99191.05;219335;1284;22749;-71
2022/06/10 19:48:07;;;;;;;3.90;3.10;;;;;;;17.42;67.86;99192.98;219384;1283;24246;-72
2022/06/10 19:53:23;;;;;;;4.00;3.00;;;;;;;17.26;68.38;99192.11;219053;1284;24273;-70
2022/06/10 19:58:32;;;;;;;4.10;3.30;;;;;;;17.11;69.09;99194.13;219444;1282;24236;-72
2022/06/10 20:03:43;;;;;;;5.70;3.00;;;;;;;16.98;69.64;99193.54;218525;1284;24246;-72
2022/06/10 20:08:45;;;;;;;6.50;3.60;;;;;;;16.84;70.21;99191.30;219299;1284;24246;-72
2022/06/10 20:13:51;;;;;;;4.10;3.40;;;;;;;16.70;70.79;99189.98;219634;1284;22589;-72
2022/06/10 20:19:02;;;;;;;4.10;3.00;;;;;;;16.58;71.25;99190.47;218856;1284;22633;-72
2022/06/10 20:24:26;;;;;;;4.40;3.30;;;;;;;16.47;71.66;99192.11;218892;1282;24215;-71
2022/06/10 20:29:28;;;;;;;7.50;4.00;;;;;;;16.36;72.06;99184.07;218599;1284;22585;-72
2022/06/10 20:34:45;;;;;;;4.70;3.90;;;;;;;16.26;72.52;99187.33;218771;1284;22560;-72
2022/06/10 20:39:48;;;;;;;4.60;3.60;;;;;;;16.16;72.81;99190.70;219023;1284;22570;-71
2022/06/10 20:44:51;;;;;;;5.10;3.50;;;;;;;16.06;73.01;99186.55;219607;1284;22582;-70
2022/06/10 20:50:05;;;;;;;4.60;4.00;;;;;;;15.97;73.31;99188.06;219310;1283;22599;-71
2022/06/10 20:55:24;;;;;;;5.10;3.60;;;;;;;15.86;73.45;99187.71;219545;1284;22602;-72
2022/06/10 21:00:35;;;;;;;7.20;4.00;;;;;;;15.77;73.65;99182.98;219084;1284;25270;-72
2022/06/10 21:11:25;;;;;;;6.00;4.60;;;;;;;15.62;74.04;99186.06;219282;1284;25272;-70
2022/06/10 21:16:54;;;;;;;5.20;3.80;;;;;;;15.52;74.32;99189.15;219107;1282;22582;-71
2022/06/10 21:22:02;;;;;;;4.10;3.80;;;;;;;15.44;74.45;99194.02;218890;1284;23370;-71
2022/06/10 21:27:18;;;;;;;4.20;3.70;;;;;;;15.36;74.64;99185.96;219084;1285;25473;-71
2022/06/10 21:32:24;;;;;;;6.90;4.40;;;;;;;15.30;74.70;99183.58;219124;1284;23214;-71
2022/06/10 21:37:27;;;;;;;7.20;4.20;;;;;;;15.22;74.86;99175.14;219167;1285;22593;-71
2022/06/10 21:47:56;;;;;;;7.60;6.40;;;;;;;15.06;75.37;99172.21;218975;1284;22636;-71
2022/06/10 21:53:40;;;;;;;6.50;5.20;;;;;;;14.99;75.70;99169.31;219379;1284;22733;-71
2022/06/10 21:58:46;;;;;;;6.60;5.40;;;;;;;14.95;75.65;99168.48;218724;1285;24300;-71
2022/06/10 22:03:55;;;;;;;6.00;5.00;;;;;;;14.96;75.75;99165.87;218913;1284;24227;-72
2022/06/10 22:09:10;;;;;;;6.90;5.20;;;;;;;14.99;75.89;99164.61;218810;1284;24242;-71
2022/06/10 22:14:15;;;;;;;6.00;5.30;;;;;;;15.01;75.99;99163.20;218924;1282;24292;-71
2022/06/10 22:19:18;;;;;;;6.40;5.80;;;;;;;15.02;76.07;99153.08;219212;1284;24819;-71
2022/06/10 22:24:25;;;;;;;8.80;6.20;;;;;;;15.03;76.18;99156.57;219349;1284;22579;-71
2022/06/10 22:29:35;;;;;;;6.00;5.40;;;;;;;15.02;76.25;99154.77;219477;1284;24714;-72
2022/06/10 22:35:06;;;;;;;6.70;6.00;;;;;;;15.00;76.38;99160.97;218901;1284;24704;-72
2022/06/10 22:40:42;;;;;;;6.60;6.00;;;;;;;14.95;76.60;99162.11;219394;1284;22558;-71
2022/06/10 22:46:18;;;;;;;8.30;5.80;;;;;;;14.86;76.81;99165.44;219171;1282;22795;-72
2022/06/10 22:51:51;;;;;;;7.60;5.30;;;;;;;14.74;77.18;99165.73;219546;1285;23469;-70
2022/06/10 22:57:05;;;;;;;7.20;5.70;;;;;;;14.54;77.56;99175.71;219237;1284;22572;-70
2022/06/10 23:02:20;;;;;;;6.90;6.20;;;;;;;14.35;78.23;99179.80;219355;1284;22550;-72
2022/06/10 23:07:43;;;;;;;9.60;5.70;;;;;;;14.20;78.75;99180.19;218940;1284;22620;-71
2022/06/10 23:13:10;;;;;;;7.00;5.80;;;;;;;14.06;79.00;99182.95;218677;1285;22781;-72
2022/06/10 23:18:39;;;;;;;8.50;6.50;;;;;;;13.93;79.49;99181.16;219060;1284;22909;-71
2022/06/10 23:23:43;;;;;;;6.60;5.80;;;;;;;13.81;79.82;99185.05;219087;1284;23201;-74
2022/06/10 23:29:09;;;;;;;7.30;5.90;;;;;;;13.71;80.09;99194.14;219081;1284;22565;-71
2022/06/10 23:34:34;;;;;;;7.60;5.80;;;;;;;13.62;80.44;99192.85;218747;1284;22752;-71
2022/06/10 23:39:36;;;;;;;8.10;6.70;;;;;;;13.52;80.78;99201.23;219275;1284;24853;-71
2022/06/10 23:44:47;;;;;;;9.90;6.70;;;;;;;13.42;80.90;99199.52;218923;1284;24789;-71
